createdAt,value
2019-06-26T00:01:58.058Z,92.68
2019-06-26T00:04:28.404Z,93.86
2019-06-26T00:06:58.697Z,92.32
2019-06-26T00:09:29.952Z,91.45
2019-06-26T00:12:00.289Z,92.84
2019-06-26T00:14:31.020Z,95.06
2019-06-26T00:17:01.309Z,95.59
2019-06-26T00:19:31.645Z,93.62
2019-06-26T00:22:02.062Z,94.03
2019-06-26T00:24:32.328Z,93.35
2019-06-26T00:27:02.648Z,92.23
2019-06-26T00:29:33.133Z,92.53
2019-06-26T00:32:03.771Z,92.63
2019-06-26T00:34:34.048Z,90.82
2019-06-26T00:37:04.560Z,92.81
2019-06-26T00:39:36.292Z,91.42
2019-06-26T00:42:06.839Z,92.50
2019-06-26T00:44:37.216Z,92.09
2019-06-26T00:47:07.521Z,91.08
2019-06-26T00:49:38.188Z,90.49
2019-06-26T00:52:08.682Z,91.23
2019-06-26T00:54:38.968Z,91.35
2019-06-26T00:57:09.764Z,90.02
2019-06-26T00:59:40.393Z,90.44
2019-06-26T01:02:10.710Z,89.47
2019-06-26T01:04:44.022Z,89.55
2019-06-26T01:07:14.835Z,89.49
2019-06-26T01:09:45.096Z,89.11
2019-06-26T01:12:15.515Z,89.00
2019-06-26T01:14:45.824Z,88.41
2019-06-26T01:17:16.588Z,88.49
2019-06-26T01:19:47.072Z,88.37
2019-06-26T01:22:17.494Z,87.73
2019-06-26T01:24:48.266Z,89.02
2019-06-26T01:27:19.413Z,88.93
2019-06-26T01:29:50.609Z,88.78
2019-06-26T01:32:21.311Z,88.36
2019-06-26T01:34:52.020Z,89.31
2019-06-26T01:37:22.300Z,92.11
2019-06-26T01:39:52.690Z,92.67
2019-06-26T01:42:23.301Z,93.40
2019-06-26T01:44:53.621Z,92.69
2019-06-26T01:47:23.899Z,94.96
2019-06-26T01:49:54.261Z,94.72
2019-06-26T01:52:25.545Z,92.32
2019-06-26T01:54:55.851Z,91.90
2019-06-26T01:57:26.532Z,91.41
2019-06-26T01:59:57.039Z,91.29
2019-06-26T02:02:27.384Z,91.23
2019-06-26T02:04:58.028Z,90.32
2019-06-26T02:07:28.747Z,90.16
2019-06-26T02:09:59.012Z,89.18
2019-06-26T02:12:29.741Z,89.86
2019-06-26T02:15:00.116Z,90.68
2019-06-26T02:17:30.429Z,89.66
2019-06-26T02:20:00.766Z,89.06
2019-06-26T02:22:31.061Z,88.45
2019-06-26T02:25:01.742Z,87.66
2019-06-26T02:27:32.710Z,87.82
2019-06-26T02:30:03.006Z,88.20
2019-06-26T02:32:34.844Z,89.00
2019-06-26T02:35:09.367Z,88.99
2019-06-26T02:37:43.783Z,89.65
2019-06-26T02:40:14.353Z,90.42
2019-06-26T02:42:45.126Z,90.59
2019-06-26T02:45:15.946Z,91.96
2019-06-26T02:47:47.206Z,92.14
2019-06-26T02:50:17.575Z,91.73
2019-06-26T02:52:48.487Z,90.04
2019-06-26T02:55:19.049Z,89.88
2019-06-26T02:57:49.460Z,89.01
2019-06-26T03:00:19.753Z,88.39
2019-06-26T03:02:50.410Z,87.64
2019-06-26T03:05:20.673Z,87.45
2019-06-26T03:07:52.146Z,87.03
2019-06-26T03:10:22.757Z,86.57
2019-06-26T03:12:53.313Z,89.62
2019-06-26T03:15:23.581Z,90.85
2019-06-26T03:17:55.857Z,90.79
2019-06-26T03:20:29.280Z,91.49
2019-06-26T03:22:59.739Z,91.02
2019-06-26T03:25:30.004Z,90.59
2019-06-26T03:28:00.469Z,89.94
2019-06-26T03:30:30.974Z,91.24
2019-06-26T03:33:01.512Z,91.30
2019-06-26T03:35:31.768Z,90.65
2019-06-26T03:38:02.767Z,90.86
2019-06-26T03:40:33.402Z,89.87
2019-06-26T03:43:03.745Z,89.72
2019-06-26T03:45:34.528Z,89.88
2019-06-26T03:48:05.137Z,89.33
2019-06-26T03:50:35.412Z,89.48
2019-06-26T03:53:05.955Z,90.61
2019-06-26T03:55:36.736Z,89.99
2019-06-26T03:58:07.045Z,89.59
2019-06-26T04:00:40.442Z,88.55
2019-06-26T04:03:11.563Z,88.06
2019-06-26T04:05:41.891Z,86.22
2019-06-26T04:08:12.149Z,86.43
2019-06-26T04:10:43.592Z,85.88
2019-06-26T04:13:14.251Z,84.59
2019-06-26T04:15:44.496Z,83.79
2019-06-26T04:18:16.365Z,82.47
2019-06-26T04:20:47.750Z,82.28
2019-06-26T04:23:18.111Z,81.37
2019-06-26T04:25:48.753Z,80.18
2019-06-26T04:28:20.201Z,81.05
2019-06-26T04:30:50.822Z,80.16
2019-06-26T04:33:21.333Z,79.39
2019-06-26T04:35:51.607Z,78.69
2019-06-26T04:38:22.464Z,78.64
2019-06-26T04:40:53.121Z,77.72
2019-06-26T04:43:23.429Z,76.41
2019-06-26T04:45:58.566Z,75.97
2019-06-26T04:48:26.335Z,74.62
2019-06-26T04:50:57.574Z,73.28
2019-06-26T04:53:28.016Z,73.50
2019-06-26T04:55:58.701Z,73.29
2019-06-26T04:58:29.000Z,72.40
2019-06-26T05:00:59.638Z,72.55
2019-06-26T05:03:30.015Z,72.74
2019-06-26T05:06:00.707Z,73.08
2019-06-26T05:08:31.393Z,72.70
2019-06-26T05:11:01.679Z,70.65
2019-06-26T05:13:32.263Z,69.93
2019-06-26T05:16:14.142Z,69.70
2019-06-26T05:18:34.979Z,69.76
2019-06-26T05:21:05.467Z,70.51
2019-06-26T05:23:36.325Z,72.00
2019-06-26T05:26:06.704Z,70.31
2019-06-26T05:28:37.437Z,70.45
2019-06-26T05:31:08.143Z,70.47
2019-06-26T05:33:38.689Z,70.23
2019-06-26T05:36:09.423Z,70.24
2019-06-26T05:38:39.782Z,69.67
2019-06-26T05:41:10.047Z,70.85
2019-06-26T05:43:40.709Z,69.36
2019-06-26T05:46:11.047Z,68.29
2019-06-26T05:48:41.380Z,69.93
2019-06-26T05:51:12.042Z,68.68
2019-06-26T05:53:42.648Z,68.36
2019-06-26T05:56:12.950Z,67.03
2019-06-26T05:58:44.019Z,66.39
2019-06-26T06:01:14.686Z,67.53
2019-06-26T06:03:45.480Z,68.10
2019-06-26T06:06:15.758Z,67.35
2019-06-26T06:08:46.083Z,67.19
2019-06-26T06:11:16.877Z,66.53
2019-06-26T06:13:47.412Z,64.06
2019-06-26T06:16:17.695Z,64.75
2019-06-26T06:18:48.205Z,63.97
2019-06-26T06:21:18.991Z,64.21
2019-06-26T06:23:49.425Z,65.55
2019-06-26T06:26:20.378Z,65.54
2019-06-26T06:28:51.150Z,65.99
2019-06-26T06:31:21.425Z,64.75
2019-06-26T06:33:51.952Z,63.55
2019-06-26T06:36:22.331Z,62.28
2019-06-26T06:38:52.855Z,61.08
2019-06-26T06:41:23.378Z,61.36
2019-06-26T06:43:53.653Z,61.48
2019-06-26T06:46:24.070Z,62.19
2019-06-26T06:48:54.453Z,62.86
2019-06-26T06:51:24.736Z,61.11
2019-06-26T06:53:55.168Z,61.09
2019-06-26T06:56:25.718Z,61.82
2019-06-26T06:58:56.051Z,61.82
2019-06-26T07:01:26.332Z,61.72
2019-06-26T07:03:56.861Z,61.69
2019-06-26T07:06:27.130Z,61.79
2019-06-26T07:08:57.760Z,62.14
2019-06-26T07:11:28.237Z,61.53
2019-06-26T07:13:58.716Z,61.43
2019-06-26T07:16:29.423Z,60.23
2019-06-26T07:19:01.120Z,60.12
2019-06-26T07:21:31.436Z,58.38
2019-06-26T07:24:02.162Z,58.58
2019-06-26T07:26:32.497Z,58.32
2019-06-26T07:29:03.174Z,58.29
2019-06-26T07:31:33.754Z,59.14
2019-06-26T07:34:04.328Z,59.00
2019-06-26T07:36:34.574Z,58.90
2019-06-26T07:39:06.565Z,59.82
2019-06-26T07:41:36.960Z,59.93
2019-06-26T07:44:07.726Z,57.60
2019-06-26T07:46:37.990Z,58.19
2019-06-26T07:49:08.313Z,58.71
2019-06-26T07:51:39.061Z,58.04
2019-06-26T07:54:09.574Z,57.38
2019-06-26T07:56:39.849Z,57.28
2019-06-26T07:59:10.481Z,57.64
2019-06-26T08:01:41.311Z,57.73
2019-06-26T08:04:11.829Z,57.37
2019-06-26T08:06:42.539Z,57.13
2019-06-26T08:09:13.235Z,57.19
2019-06-26T08:11:43.547Z,57.94
2019-06-26T08:14:14.103Z,57.45
2019-06-26T08:16:44.799Z,56.89
2019-06-26T08:19:15.095Z,56.55
2019-06-26T08:21:46.742Z,56.65
2019-06-26T08:24:17.672Z,55.91
2019-06-26T08:26:48.078Z,55.85
2019-06-26T08:29:18.464Z,55.33
2019-06-26T08:31:49.002Z,54.86
2019-06-26T08:34:19.508Z,53.81
2019-06-26T08:36:49.787Z,53.47
2019-06-26T08:39:20.419Z,53.18
2019-06-26T08:41:51.105Z,52.73
2019-06-26T08:44:21.429Z,51.84
2019-06-26T08:46:51.724Z,50.90
2019-06-26T08:49:26.046Z,50.57
2019-06-26T08:51:55.073Z,50.10
2019-06-26T08:54:25.585Z,49.43
2019-06-26T08:56:55.910Z,49.25
2019-06-26T08:59:26.551Z,49.77
2019-06-26T09:01:57.217Z,49.80
2019-06-26T09:04:27.502Z,49.66
2019-06-26T09:06:58.081Z,48.71
2019-06-26T09:09:28.705Z,49.67
2019-06-26T09:11:58.953Z,49.47
2019-06-26T09:14:29.311Z,49.88
2019-06-26T09:16:59.592Z,49.29
2019-06-26T09:19:30.125Z,50.04
2019-06-26T09:22:00.736Z,48.61
2019-06-26T09:24:31.066Z,48.02
2019-06-26T09:27:01.635Z,49.53
2019-06-26T09:29:32.305Z,49.61
2019-06-26T09:32:02.654Z,48.77
2019-06-26T09:34:33.098Z,48.72
2019-06-26T09:37:03.731Z,49.00
2019-06-26T09:39:34.000Z,48.86
2019-06-26T09:42:04.320Z,48.64
2019-06-26T09:44:34.987Z,50.15
2019-06-26T09:47:05.282Z,49.58
2019-06-26T09:49:35.843Z,48.21
2019-06-26T09:52:06.162Z,49.79
2019-06-26T09:54:36.604Z,48.86
2019-06-26T09:57:07.302Z,48.55
2019-06-26T09:59:37.583Z,48.47
2019-06-26T10:02:07.879Z,48.65
2019-06-26T10:04:38.511Z,47.34
2019-06-26T10:07:08.869Z,47.18
2019-06-26T10:09:39.139Z,46.14
2019-06-26T10:12:09.759Z,45.99
2019-06-26T10:14:47.866Z,45.94
2019-06-26T10:17:13.224Z,45.21
2019-06-26T10:19:43.913Z,46.22
2019-06-26T10:22:14.245Z,45.02
2019-06-26T10:24:45.900Z,45.87
2019-06-26T10:27:16.185Z,45.14
2019-06-26T10:29:46.602Z,45.14
2019-06-26T10:32:17.341Z,44.56
2019-06-26T10:34:47.813Z,44.65
2019-06-26T10:37:18.133Z,42.92
2019-06-26T10:39:48.766Z,43.62
2019-06-26T10:42:19.092Z,43.85
2019-06-26T10:44:50.347Z,42.17
2019-06-26T10:47:20.981Z,41.33
2019-06-26T10:49:51.785Z,41.32
2019-06-26T10:52:22.101Z,41.09
2019-06-26T10:54:52.605Z,40.79
2019-06-26T10:57:22.918Z,39.33
2019-06-26T10:59:55.849Z,39.01
2019-06-26T11:02:25.885Z,38.34
2019-06-26T11:04:56.240Z,39.22
2019-06-26T11:07:26.958Z,40.36
2019-06-26T11:09:57.379Z,42.24
2019-06-26T11:12:27.647Z,42.46
2019-06-26T11:14:57.985Z,42.76
2019-06-26T11:17:28.784Z,43.56
2019-06-26T11:19:59.035Z,43.58
2019-06-26T11:22:29.319Z,41.76
2019-06-26T11:24:59.809Z,41.71
2019-06-26T11:27:30.436Z,42.46
2019-06-26T11:30:01.145Z,42.66
2019-06-26T11:32:31.534Z,42.26
2019-06-26T11:35:02.056Z,43.40
2019-06-26T11:37:32.698Z,42.51
2019-06-26T11:40:02.996Z,41.58
2019-06-26T11:42:33.352Z,43.50
2019-06-26T11:45:03.995Z,42.77
2019-06-26T11:47:34.301Z,41.89
2019-06-26T11:50:05.265Z,41.74
2019-06-26T11:52:35.916Z,41.33
2019-06-26T11:55:07.046Z,40.75
2019-06-26T11:57:39.073Z,39.65
2019-06-26T12:00:10.873Z,38.56
2019-06-26T12:02:41.235Z,37.67
2019-06-26T12:05:12.219Z,38.22
2019-06-26T12:07:42.480Z,38.22
2019-06-26T12:10:14.493Z,38.82
2019-06-26T12:12:45.304Z,38.52
2019-06-26T12:15:16.368Z,38.17
2019-06-26T12:17:46.639Z,37.81
2019-06-26T12:20:19.830Z,38.54
2019-06-26T12:22:50.342Z,38.26
2019-06-26T12:25:20.599Z,37.56
2019-06-26T12:27:51.374Z,37.97
2019-06-26T12:30:22.316Z,37.43
2019-06-26T12:33:02.865Z,37.04
2019-06-26T12:35:24.667Z,35.92
2019-06-26T12:37:55.415Z,34.57
2019-06-26T12:40:25.752Z,33.36
2019-06-26T12:42:56.058Z,33.71
2019-06-26T12:45:26.940Z,33.44
2019-06-26T12:47:57.289Z,33.08
2019-06-26T12:50:35.371Z,35.00
2019-06-26T12:53:00.155Z,35.62
2019-06-26T12:55:32.991Z,36.14
2019-06-26T12:58:13.155Z,35.45
2019-06-26T13:00:35.098Z,34.50
2019-06-26T13:03:06.144Z,33.43
2019-06-26T13:05:36.892Z,33.14
2019-06-26T13:08:07.152Z,33.68
2019-06-26T13:10:48.924Z,33.95
2019-06-26T13:13:09.485Z,34.30
2019-06-26T13:15:39.975Z,35.51
2019-06-26T13:18:10.286Z,36.14
2019-06-26T13:20:52.094Z,35.13
2019-06-26T13:23:14.894Z,34.13
2019-06-26T13:25:45.539Z,35.03
2019-06-26T13:28:16.197Z,34.35
2019-06-26T13:30:47.046Z,33.62
2019-06-26T13:33:17.531Z,34.78
2019-06-26T13:35:48.110Z,33.76
2019-06-26T13:38:18.422Z,34.75
2019-06-26T13:40:49.183Z,34.12
2019-06-26T13:43:19.564Z,34.62
2019-06-26T13:45:49.932Z,34.36
2019-06-26T13:48:20.604Z,33.72
2019-06-26T13:50:51.184Z,33.71
2019-06-26T13:53:22.655Z,33.57
2019-06-26T13:55:53.147Z,33.95
2019-06-26T13:58:23.952Z,32.65
2019-06-26T14:00:54.256Z,31.53
2019-06-26T14:03:24.568Z,31.18
2019-06-26T14:05:55.720Z,31.25
2019-06-26T14:08:26.476Z,30.14
2019-06-26T14:10:57.864Z,30.97
2019-06-26T14:13:28.157Z,30.24
2019-06-26T14:15:58.503Z,30.05
2019-06-26T14:18:30.490Z,29.97
2019-06-26T14:21:00.935Z,29.68
2019-06-26T14:23:31.270Z,29.85
2019-06-26T14:26:01.992Z,29.46
2019-06-26T14:28:32.254Z,30.42
2019-06-26T14:31:02.558Z,31.36
2019-06-26T14:33:33.301Z,31.06
2019-06-26T14:36:03.800Z,31.31
2019-06-26T14:38:34.144Z,30.17
2019-06-26T14:41:04.497Z,30.24
2019-06-26T14:43:34.844Z,28.85
2019-06-26T14:46:05.517Z,29.00
2019-06-26T14:48:35.777Z,28.08
2019-06-26T14:51:06.111Z,28.54
2019-06-26T14:53:36.819Z,27.60
2019-06-26T14:56:07.306Z,27.73
2019-06-26T14:58:37.650Z,30.10
2019-06-26T15:01:08.515Z,31.58
2019-06-26T15:03:39.203Z,30.68
2019-06-26T15:06:16.290Z,30.66
2019-06-26T15:08:41.589Z,29.92
2019-06-26T15:11:14.648Z,29.31
2019-06-26T15:13:44.245Z,28.22
2019-06-26T15:16:14.728Z,28.92
2019-06-26T15:18:45.033Z,29.79
2019-06-26T15:21:15.756Z,29.27
2019-06-26T15:27:10.672Z,29.04
2019-06-26T15:29:41.436Z,28.88
2019-06-26T15:32:12.151Z,29.14
2019-06-26T15:34:42.429Z,29.26
2019-06-26T15:37:12.773Z,28.37
2019-06-26T15:39:43.132Z,28.06
2019-06-26T15:42:13.452Z,28.03
2019-06-26T15:44:44.063Z,27.88
2019-06-26T15:47:14.339Z,27.52
2019-06-26T15:49:44.842Z,28.05
2019-06-26T15:52:15.766Z,27.81
2019-06-26T15:57:52.200Z,26.75
2019-06-26T16:00:23.071Z,26.57
2019-06-26T16:02:53.342Z,26.25
2019-06-26T16:05:23.667Z,26.11
2019-06-26T16:07:54.434Z,26.25
2019-06-26T16:10:24.819Z,26.95
2019-06-26T16:12:55.088Z,26.15
2019-06-26T16:15:25.809Z,27.24
2019-06-26T16:18:15.266Z,26.72
2019-06-26T16:20:46.948Z,27.17
2019-06-26T16:23:17.297Z,26.89
2019-06-26T16:25:47.889Z,27.25
2019-06-26T16:28:18.481Z,27.60
2019-06-26T16:30:48.804Z,27.81
2019-06-26T16:33:19.064Z,28.37
2019-06-26T16:35:49.645Z,27.99
2019-06-26T16:38:20.241Z,27.74
2019-06-26T16:40:50.780Z,27.58
2019-06-26T16:43:21.549Z,27.87
2019-06-26T16:45:52.144Z,28.51
2019-06-26T16:48:22.422Z,28.07
2019-06-26T16:50:53.324Z,28.63
2019-06-26T16:53:23.984Z,28.35
2019-06-26T16:55:54.424Z,28.32
2019-06-26T16:58:24.937Z,28.55
2019-06-26T17:00:55.691Z,28.67
2019-06-26T17:03:25.948Z,29.99
2019-06-26T17:05:56.290Z,29.59
2019-06-26T17:08:26.666Z,29.97
2019-06-26T17:10:57.020Z,30.12
2019-06-26T17:13:27.293Z,30.92
2019-06-26T17:15:58.094Z,31.50
2019-06-26T17:18:28.573Z,31.29
2019-06-26T17:20:59.302Z,31.92
2019-06-26T17:23:30.050Z,31.44
2019-06-26T17:26:00.424Z,31.59
2019-06-26T17:28:31.069Z,32.19
2019-06-26T17:31:01.348Z,32.34
2019-06-26T17:33:31.724Z,32.73
2019-06-26T17:36:02.489Z,33.26
2019-06-26T17:38:33.097Z,33.47
2019-06-26T17:41:03.393Z,34.31
2019-06-26T17:43:34.088Z,35.50
2019-06-26T17:46:04.902Z,36.18
2019-06-26T17:48:35.233Z,37.19
2019-06-26T17:51:06.108Z,37.73
2019-06-26T17:53:37.448Z,39.61
2019-06-26T17:56:08.429Z,39.62
2019-06-26T17:58:38.908Z,40.57
2019-06-26T18:01:09.234Z,41.86
2019-06-26T18:03:39.928Z,42.17
2019-06-26T18:06:10.292Z,43.72
2019-06-26T18:08:40.576Z,44.15
2019-06-26T18:11:11.442Z,44.61
2019-06-26T18:13:42.077Z,46.35
2019-06-26T18:16:12.358Z,46.43
2019-06-26T18:18:42.749Z,46.61
2019-06-26T18:21:13.405Z,47.25
2019-06-26T18:23:43.689Z,48.66
2019-06-26T18:26:14.536Z,48.87
2019-06-26T18:28:44.821Z,49.29
2019-06-26T18:31:15.555Z,49.84
2019-06-26T18:33:45.954Z,50.59
2019-06-26T18:36:16.221Z,51.03
2019-06-26T18:38:46.672Z,51.15
2019-06-26T18:41:18.647Z,51.44
2019-06-26T18:43:49.085Z,52.11
2019-06-26T18:46:19.364Z,52.58
2019-06-26T18:48:50.076Z,53.53
2019-06-26T18:51:20.352Z,53.66
2019-06-26T18:53:53.908Z,53.77
2019-06-26T18:56:22.981Z,54.01
2019-06-26T18:58:53.477Z,53.98
2019-06-26T19:01:24.180Z,54.47
2019-06-26T19:03:54.505Z,55.22
2019-06-26T19:06:25.745Z,54.25
2019-06-26T19:08:56.465Z,55.07
2019-06-26T19:11:26.787Z,55.53
2019-06-26T19:13:57.057Z,55.46
2019-06-26T19:16:27.765Z,56.22
2019-06-26T19:18:58.308Z,56.51
2019-06-26T19:21:28.576Z,56.70
2019-06-26T19:24:09.543Z,56.98
2019-06-26T19:26:31.978Z,57.16
2019-06-26T19:29:02.556Z,57.11
2019-06-26T19:31:32.903Z,56.96
2019-06-26T19:34:03.426Z,57.47
2019-06-26T19:36:49.119Z,57.42
2019-06-26T19:39:07.824Z,57.79
2019-06-26T19:41:38.209Z,57.77
2019-06-26T19:44:09.330Z,57.66
2019-06-26T19:46:42.055Z,57.61
2019-06-26T19:49:11.993Z,57.67
2019-06-26T19:51:42.605Z,57.88
2019-06-26T19:54:26.730Z,57.68
2019-06-26T19:56:45.133Z,57.89
2019-06-26T19:59:15.581Z,57.98
2019-06-26T20:01:45.881Z,57.62
2019-06-26T20:04:16.487Z,58.02
2019-06-26T20:06:46.881Z,58.08
2019-06-26T20:09:17.168Z,58.03
2019-06-26T20:11:47.949Z,58.49
2019-06-26T20:14:18.538Z,58.23
2019-06-26T20:16:48.909Z,58.52
2019-06-26T20:19:19.256Z,58.19
2019-06-26T20:21:50.027Z,58.92
2019-06-26T20:24:20.310Z,58.64
2019-06-26T20:26:50.636Z,58.58
2019-06-26T20:29:21.293Z,58.90
2019-06-26T20:31:51.594Z,59.75
2019-06-26T20:34:21.955Z,59.27
2019-06-26T20:36:53.209Z,59.79
2019-06-26T20:39:23.595Z,60.15
2019-06-26T20:41:54.254Z,60.58
2019-06-26T20:44:24.552Z,60.71
2019-06-26T20:46:54.843Z,61.18
2019-06-26T20:49:25.290Z,61.63
2019-06-26T20:51:55.620Z,61.69
2019-06-26T20:54:25.902Z,62.08
2019-06-26T20:56:56.628Z,62.21
2019-06-26T20:59:27.118Z,62.75
2019-06-26T21:01:57.442Z,63.04
2019-06-26T21:04:28.217Z,63.27
2019-06-26T21:06:59.212Z,63.93
2019-06-26T21:09:29.437Z,64.17
2019-06-26T21:12:00.641Z,64.67
2019-06-26T21:14:31.119Z,65.24
2019-06-26T21:17:01.428Z,66.04
2019-06-26T21:19:31.781Z,66.50
2019-06-26T21:22:02.490Z,66.37
2019-06-26T21:24:32.874Z,66.58
2019-06-26T21:27:03.194Z,68.05
2019-06-26T21:29:34.320Z,69.48
2019-06-26T21:32:04.621Z,69.71
2019-06-26T21:34:34.888Z,71.03
2019-06-26T21:37:05.703Z,70.56
2019-06-26T21:39:36.044Z,69.99
2019-06-26T21:42:06.760Z,70.69
2019-06-26T21:44:37.038Z,72.16
2019-06-26T21:47:07.357Z,72.69
2019-06-26T21:49:38.293Z,74.26
2019-06-26T21:52:08.548Z,76.59
2019-06-26T21:54:38.850Z,77.44
2019-06-26T21:57:27.417Z,79.29
2019-06-26T22:00:17.359Z,78.67
2019-06-26T22:03:05.888Z,79.72
2019-06-26T22:05:37.963Z,81.07
2019-06-26T22:08:22.485Z,82.38
2019-06-26T22:10:54.615Z,82.65
2019-06-26T22:13:24.979Z,83.80
2019-06-26T22:15:55.325Z,82.32
2019-06-26T22:18:27.421Z,84.42
2019-06-26T22:20:57.938Z,85.24
2019-06-26T22:23:28.265Z,84.74
2019-06-26T22:26:00.024Z,84.26
2019-06-26T22:28:30.796Z,85.38
2019-06-26T22:31:01.032Z,86.00
2019-06-26T22:33:31.812Z,85.96
2019-06-26T22:36:02.413Z,86.33
2019-06-26T22:38:32.718Z,85.04
2019-06-26T22:41:03.504Z,85.36
2019-06-26T22:43:33.776Z,84.91
2019-06-26T22:46:04.589Z,86.17
2019-06-26T22:48:35.261Z,86.98
2019-06-26T22:51:06.519Z,86.39
2019-06-26T22:53:37.163Z,86.18
2019-06-26T22:56:08.362Z,87.46
2019-06-26T22:58:39.154Z,87.48
2019-06-26T23:01:09.685Z,87.79
2019-06-26T23:03:40.395Z,88.53
2019-06-26T23:06:10.768Z,88.39
2019-06-26T23:08:41.085Z,87.66
2019-06-26T23:11:11.793Z,87.94
2019-06-26T23:13:43.091Z,88.29
2019-06-26T23:16:13.733Z,89.54
2019-06-26T23:18:44.095Z,90.50
2019-06-26T23:21:14.433Z,89.78
2019-06-26T23:23:45.133Z,90.09
2019-06-26T23:26:23.765Z,90.23
2019-06-26T23:28:47.531Z,91.06
2019-06-26T23:31:18.159Z,91.65
2019-06-26T23:33:48.470Z,91.93
2019-06-26T23:36:18.771Z,91.48
2019-06-26T23:38:49.601Z,91.93
2019-06-26T23:41:20.223Z,92.52
2019-06-26T23:43:51.595Z,93.12
2019-06-26T23:46:22.264Z,93.47
2019-06-26T23:48:52.802Z,93.37
2019-06-26T23:51:23.702Z,93.09
2019-06-26T23:53:53.995Z,92.99
2019-06-26T23:56:39.455Z,93.01
2019-06-26T23:58:56.478Z,93.07
